Time;durP1;ratioP1;P1;durP2;ratioP2;P2;SDS_P1;SDS_P2;PMS_P1;PMS_P2;Temp;Humidity;BMP_temperature;BMP_pressure;BME280_temperature;BME280_humidity;BME280_pressure;Samples;Min_cycle;Max_cycle;Signal;HPM_P1;HPM_P2
2022/06/23 00:01:22;;;;;;;9.93;5.90;;;;;;;;;;7332086;19;153543;-15
2022/06/23 00:03:57;;;;;;;11.27;5.97;;;;;;;;;;7332509;19;161798;-14
2022/06/23 00:06:41;;;;;;;11.27;5.75;;;;;;;;;;7332422;19;162605;-15
2022/06/23 00:09:36;;;;;;;10.35;5.78;;;;;;;;;;7332622;19;154252;-15
2022/06/23 00:12:27;;;;;;;13.27;6.38;;;;;;;;;;7332583;19;153606;-14
2022/06/23 00:15:27;;;;;;;10.23;5.88;;;;;;;;;;7330768;19;161761;-15
2022/06/23 00:18:01;;;;;;;8.77;5.10;;;;;;;;;;7331810;19;162515;-14
2022/06/23 00:20:41;;;;;;;10.93;5.07;;;;;;;;;;7332243;19;154305;-16
2022/06/23 00:23:16;;;;;;;11.35;5.72;;;;;;;;;;7331084;19;154021;-14
2022/06/23 00:25:53;;;;;;;10.88;5.63;;;;;;;;;;7331638;19;161973;-14
2022/06/23 00:28:29;;;;;;;10.50;6.38;;;;;;;;;;7331785;19;162949;-14
2022/06/23 00:31:02;;;;;;;13.77;6.05;;;;;;;;;;7332104;19;154022;-14
2022/06/23 00:33:40;;;;;;;9.82;5.63;;;;;;;;;;7329010;19;153790;-14
2022/06/23 00:36:20;;;;;;;9.75;5.40;;;;;;;;;;7326445;19;161997;-14
2022/06/23 00:38:51;;;;;;;10.20;5.53;;;;;;;;;;7328662;19;162577;-14
2022/06/23 00:41:29;;;;;;;8.57;4.80;;;;;;;;;;7327954;19;154098;-14
2022/06/23 00:44:06;;;;;;;10.23;5.47;;;;;;;;;;7327878;19;153555;-15
2022/06/23 00:46:44;;;;;;;9.57;4.75;;;;;;;;;;7328856;19;161946;-14
2022/06/23 00:49:25;;;;;;;7.40;5.10;;;;;;;;;;7328548;19;162790;-14
2022/06/23 00:52:00;;;;;;;10.80;5.55;;;;;;;;;;7329392;19;154160;-15
2022/06/23 00:54:35;;;;;;;8.98;5.35;;;;;;;;;;7328496;19;153658;-15
2022/06/23 00:57:16;;;;;;;11.07;5.43;;;;;;;;;;7327313;19;161894;-15
2022/06/23 00:59:53;;;;;;;9.35;5.47;;;;;;;;;;7327121;19;162269;-15
2022/06/23 01:02:28;;;;;;;9.48;5.15;;;;;;;;;;7328446;19;154756;-14
2022/06/23 01:05:04;;;;;;;10.38;5.65;;;;;;;;;;7328350;19;153614;-14
2022/06/23 01:07:44;;;;;;;9.70;5.22;;;;;;;;;;7327986;19;162096;-15
2022/06/23 01:10:30;;;;;;;9.30;4.93;;;;;;;;;;7328039;19;162609;-14
2022/06/23 01:13:14;;;;;;;9.27;4.90;;;;;;;;;;7328452;19;154076;-15
2022/06/23 01:15:49;;;;;;;7.57;5.35;;;;;;;;;;7326870;19;153830;-15
2022/06/23 01:18:25;;;;;;;9.82;4.72;;;;;;;;;;7327511;19;162034;-14
2022/06/23 01:21:00;;;;;;;7.00;4.43;;;;;;;;;;7327570;19;162576;-14
2022/06/23 01:23:50;;;;;;;8.13;5.07;;;;;;;;;;7328065;19;154043;-14
2022/06/23 01:26:52;;;;;;;9.45;5.40;;;;;;;;;;7328388;19;153602;-14
2022/06/23 01:29:30;;;;;;;9.15;5.18;;;;;;;;;;7327136;19;161812;-14
2022/06/23 01:32:10;;;;;;;9.20;5.47;;;;;;;;;;7165878;19;3082911;-14
2022/06/23 01:34:48;;;;;;;9.55;5.22;;;;;;;;;;7330129;19;154017;-14
2022/06/23 01:37:26;;;;;;;8.57;5.47;;;;;;;;;;7329124;19;153554;-14
2022/06/23 01:40:05;;;;;;;9.60;5.28;;;;;;;;;;7329803;19;162134;-14
2022/06/23 01:42:44;;;;;;;7.78;4.72;;;;;;;;;;7329736;19;162617;-14
2022/06/23 01:45:25;;;;;;;9.35;4.47;;;;;;;;;;7330020;19;154282;-14
2022/06/23 01:48:02;;;;;;;8.10;5.10;;;;;;;;;;7329962;19;153863;-14
2022/06/23 01:50:39;;;;;;;8.45;5.22;;;;;;;;;;7329568;19;161953;-14
2022/06/23 01:53:21;;;;;;;10.25;5.07;;;;;;;;;;7328125;19;162680;-14
2022/06/23 01:56:20;;;;;;;7.50;4.60;;;;;;;;;;7328452;19;153920;-14
2022/06/23 01:58:58;;;;;;;7.80;4.63;;;;;;;;;;7329061;19;153755;-14
2022/06/23 02:01:41;;;;;;;7.60;3.78;;;;;;;;;;7328948;19;161873;-22
2022/06/23 02:04:19;;;;;;;8.70;4.78;;;;;;;;;;7328772;19;163030;-15
2022/06/23 02:06:54;;;;;;;7.88;5.03;;;;;;;;;;7329321;19;153958;-14
2022/06/23 02:09:34;;;;;;;10.05;4.95;;;;;;;;;;7329428;19;153594;-15
2022/06/23 02:12:16;;;;;;;7.60;4.60;;;;;;;;;;7332281;19;161829;-14
2022/06/23 02:14:54;;;;;;;8.02;4.43;;;;;;;;;;7335430;19;162695;-15
2022/06/23 02:17:42;;;;;;;10.02;4.93;;;;;;;;;;7333696;19;154168;-14
2022/06/23 02:20:29;;;;;;;8.02;4.90;;;;;;;;;;7335741;19;153681;-14
2022/06/23 02:23:11;;;;;;;8.52;4.43;;;;;;;;;;7335335;19;161837;-18
2022/06/23 02:25:49;;;;;;;7.65;4.53;;;;;;;;;;7335528;19;162420;-14
2022/06/23 02:28:31;;;;;;;6.13;4.30;;;;;;;;;;7335681;19;154062;-15
2022/06/23 02:31:10;;;;;;;6.72;4.35;;;;;;;;;;7334429;19;153633;-23
2022/06/23 02:33:52;;;;;;;8.60;4.55;;;;;;;;;;7335137;19;162027;-15
2022/06/23 02:36:55;;;;;;;8.23;4.40;;;;;;;;;;7333761;19;162357;-15
2022/06/23 02:39:32;;;;;;;8.60;4.70;;;;;;;;;;7335167;19;154064;-15
2022/06/23 02:42:07;;;;;;;7.65;4.60;;;;;;;;;;7335169;19;153852;-15
2022/06/23 02:44:51;;;;;;;9.50;4.60;;;;;;;;;;7334971;19;162150;-15
2022/06/23 02:47:39;;;;;;;7.50;4.40;;;;;;;;;;7334750;19;162283;-15
2022/06/23 02:50:27;;;;;;;8.45;4.50;;;;;;;;;;7335040;19;154151;-15
2022/06/23 02:53:18;;;;;;;7.88;4.57;;;;;;;;;;7335034;19;153831;-15
2022/06/23 02:56:08;;;;;;;8.65;4.97;;;;;;;;;;7335339;19;161782;-15
2022/06/23 02:58:46;;;;;;;7.53;4.50;;;;;;;;;;7334270;19;162971;-15
2022/06/23 03:01:24;;;;;;;6.63;4.13;;;;;;;;;;7334598;19;154038;-15
2022/06/23 03:04:04;;;;;;;8.20;4.28;;;;;;;;;;7334434;19;153690;-15
2022/06/23 03:06:45;;;;;;;6.28;4.10;;;;;;;;;;7334300;19;161879;-15
2022/06/23 03:09:25;;;;;;;7.70;4.03;;;;;;;;;;7334237;19;162753;-16
2022/06/23 03:12:02;;;;;;;7.53;4.70;;;;;;;;;;7334427;19;154066;-15
2022/06/23 03:14:39;;;;;;;7.38;4.68;;;;;;;;;;7334173;19;153878;-15
2022/06/23 03:17:20;;;;;;;7.50;4.55;;;;;;;;;;7331292;19;162043;-15
2022/06/23 03:20:02;;;;;;;5.70;4.40;;;;;;;;;;7333866;19;162414;-15
2022/06/23 03:22:44;;;;;;;6.97;4.28;;;;;;;;;;7335839;19;154419;-15
2022/06/23 03:25:23;;;;;;;8.20;4.28;;;;;;;;;;7334008;19;153557;-15
2022/06/23 03:28:00;;;;;;;9.85;4.28;;;;;;;;;;7334270;19;162235;-15
2022/06/23 03:30:37;;;;;;;7.85;4.05;;;;;;;;;;7334989;19;162801;-15
2022/06/23 03:33:17;;;;;;;5.50;4.07;;;;;;;;;;7334937;19;154092;-15
2022/06/23 03:35:52;;;;;;;6.70;4.30;;;;;;;;;;7336696;19;153676;-15
2022/06/23 03:44:21;;;;;;;7.20;4.10;;;;;;;;;;7335610;19;154162;-15
2022/06/23 03:46:57;;;;;;;8.02;4.15;;;;;;;;;;7335796;19;154100;-15
2022/06/23 03:49:48;;;;;;;6.53;4.15;;;;;;;;;;7336200;19;162065;-14
2022/06/23 03:52:29;;;;;;;9.57;5.18;;;;;;;;;;7335600;19;162574;-14
2022/06/23 03:55:10;;;;;;;6.65;4.45;;;;;;;;;;7335818;19;154291;-15
2022/06/23 03:57:53;;;;;;;6.10;4.50;;;;;;;;;;7333604;19;153692;-15
2022/06/23 04:00:38;;;;;;;6.93;4.47;;;;;;;;;;7335340;19;162056;-14
2022/06/23 04:03:18;;;;;;;7.30;4.45;;;;;;;;;;7335853;19;162439;-15
2022/06/23 04:06:18;;;;;;;7.32;4.28;;;;;;;;;;7336590;19;154063;-15
2022/06/23 04:08:55;;;;;;;5.95;4.43;;;;;;;;;;7335736;19;153723;-15
2022/06/23 04:11:46;;;;;;;7.55;3.85;;;;;;;;;;7335744;19;162143;-15
2022/06/23 04:14:26;;;;;;;6.75;3.72;;;;;;;;;;7335340;19;162333;-14
2022/06/23 04:17:07;;;;;;;6.00;4.05;;;;;;;;;;7334714;19;154095;-14
2022/06/23 04:19:40;;;;;;;6.97;4.20;;;;;;;;;;7335373;19;153563;-14
2022/06/23 04:22:17;;;;;;;5.88;4.00;;;;;;;;;;7334209;19;161803;-14
2022/06/23 04:24:52;;;;;;;6.57;3.92;;;;;;;;;;7335197;19;162451;-14
2022/06/23 04:27:29;;;;;;;6.20;4.22;;;;;;;;;;7335309;19;154088;-14
2022/06/23 04:30:02;;;;;;;7.65;3.90;;;;;;;;;;7335408;19;153520;-16
2022/06/23 04:32:36;;;;;;;7.28;4.13;;;;;;;;;;7332170;19;162321;-14
2022/06/23 04:35:13;;;;;;;7.07;4.13;;;;;;;;;;7332788;19;162385;-14
2022/06/23 04:37:54;;;;;;;6.03;3.75;;;;;;;;;;7333524;19;154308;-14
2022/06/23 04:40:29;;;;;;;7.07;4.00;;;;;;;;;;7334893;19;153879;-14
2022/06/23 04:43:06;;;;;;;6.18;3.83;;;;;;;;;;7333706;19;162028;-14
2022/06/23 04:45:50;;;;;;;6.85;3.85;;;;;;;;;;7334262;19;162322;-14
2022/06/23 04:48:27;;;;;;;6.78;3.75;;;;;;;;;;7333863;19;154430;-14
2022/06/23 04:51:03;;;;;;;6.50;3.95;;;;;;;;;;7334370;19;153539;-14
2022/06/23 04:53:43;;;;;;;6.22;3.60;;;;;;;;;;7333672;19;162033;-14
2022/06/23 04:56:50;;;;;;;7.05;3.85;;;;;;;;;;7332892;19;162142;-14
2022/06/23 04:59:40;;;;;;;6.25;4.28;;;;;;;;;;7333985;19;154490;-14
2022/06/23 05:02:26;;;;;;;5.93;3.55;;;;;;;;;;7333650;19;153767;-14
2022/06/23 05:05:04;;;;;;;5.40;3.83;;;;;;;;;;7333831;19;161897;-14
2022/06/23 05:07:49;;;;;;;6.93;4.07;;;;;;;;;;7334618;19;162899;-16
2022/06/23 05:10:26;;;;;;;6.35;4.18;;;;;;;;;;7334336;19;154627;-14
2022/06/23 05:13:00;;;;;;;6.05;3.85;;;;;;;;;;7333407;19;153940;-14
2022/06/23 05:15:37;;;;;;;6.60;4.10;;;;;;;;;;7333729;19;161820;-14
2022/06/23 05:18:24;;;;;;;6.47;3.95;;;;;;;;;;7331648;19;162513;-14
2022/06/23 05:21:00;;;;;;;7.68;4.32;;;;;;;;;;7333522;19;154053;-14
2022/06/23 05:23:41;;;;;;;6.90;3.67;;;;;;;;;;7333147;19;153554;-14
2022/06/23 05:26:19;;;;;;;5.93;3.60;;;;;;;;;;7329847;19;161999;-15
2022/06/23 05:28:54;;;;;;;6.15;4.03;;;;;;;;;;7330051;19;162382;-15
2022/06/23 05:31:34;;;;;;;5.47;3.92;;;;;;;;;;7329769;19;154155;-15
2022/06/23 05:34:11;;;;;;;6.10;4.35;;;;;;;;;;7330366;19;153584;-15
2022/06/23 05:36:51;;;;;;;6.78;4.35;;;;;;;;;;7329798;19;161857;-14
2022/06/23 05:39:28;;;;;;;6.70;4.00;;;;;;;;;;7327121;19;162553;-15
2022/06/23 05:42:04;;;;;;;7.00;4.05;;;;;;;;;;7329781;19;154033;-14
2022/06/23 05:44:46;;;;;;;5.85;4.43;;;;;;;;;;7327945;19;153521;-14
2022/06/23 05:47:22;;;;;;;7.85;4.22;;;;;;;;;;7329441;19;161810;-14
2022/06/23 05:49:57;;;;;;;5.78;4.47;;;;;;;;;;7331549;19;162313;-14
2022/06/23 05:52:34;;;;;;;6.68;3.63;;;;;;;;;;7331979;19;154133;-14
2022/06/23 05:55:15;;;;;;;4.65;3.33;;;;;;;;;;7329459;19;153561;-14
2022/06/23 05:57:53;;;;;;;5.95;3.10;;;;;;;;;;7327516;19;161813;-16
2022/06/23 06:00:30;;;;;;;6.72;3.70;;;;;;;;;;7323294;19;162693;-15
2022/06/23 06:03:09;;;;;;;5.50;3.53;;;;;;;;;;7324965;19;154306;-15
2022/06/23 06:05:44;;;;;;;9.73;3.50;;;;;;;;;;7324756;19;153876;-13
2022/06/23 06:08:20;;;;;;;6.45;3.30;;;;;;;;;;7324358;19;161795;-13
2022/06/23 06:10:52;;;;;;;4.88;3.08;;;;;;;;;;7324274;19;162421;-16
2022/06/23 06:13:29;;;;;;;3.22;2.80;;;;;;;;;;7324702;19;154020;-14
2022/06/23 06:16:04;;;;;;;3.78;3.22;;;;;;;;;;7325992;19;154070;-14
2022/06/23 06:18:41;;;;;;;4.78;3.13;;;;;;;;;;7327655;19;162011;-16
2022/06/23 06:21:16;;;;;;;6.93;3.15;;;;;;;;;;7327626;19;162481;-16
2022/06/23 06:23:53;;;;;;;11.82;3.33;;;;;;;;;;7328705;19;154749;-16
2022/06/23 06:26:30;;;;;;;5.88;3.15;;;;;;;;;;7328214;19;153778;-15
2022/06/23 06:29:13;;;;;;;19.63;3.80;;;;;;;;;;7328148;19;162003;-16
2022/06/23 06:31:47;;;;;;;4.88;2.83;;;;;;;;;;7326739;19;162658;-16
2022/06/23 06:34:26;;;;;;;11.57;3.40;;;;;;;;;;7328234;19;154185;-15
2022/06/23 06:36:57;;;;;;;3.58;2.78;;;;;;;;;;7326990;19;153815;-15
2022/06/23 06:39:32;;;;;;;5.53;3.08;;;;;;;;;;7326247;19;162032;-16
2022/06/23 06:42:08;;;;;;;7.55;2.80;;;;;;;;;;7327795;19;162315;-15
2022/06/23 06:44:44;;;;;;;6.40;3.13;;;;;;;;;;7328045;19;153995;-15
2022/06/23 06:47:20;;;;;;;3.92;2.80;;;;;;;;;;7327664;19;153861;-15
2022/06/23 06:49:56;;;;;;;3.55;2.92;;;;;;;;;;7327200;19;162044;-15
2022/06/23 06:52:27;;;;;;;8.32;3.20;;;;;;;;;;7327091;19;162467;-15
2022/06/23 06:55:03;;;;;;;5.30;3.03;;;;;;;;;;7332058;19;153994;-15
2022/06/23 06:57:52;;;;;;;6.03;2.88;;;;;;;;;;7329700;19;153471;-16
2022/06/23 07:00:27;;;;;;;7.03;3.22;;;;;;;;;;7331686;19;162071;-15
2022/06/23 07:03:03;;;;;;;4.85;2.90;;;;;;;;;;7333848;19;162358;-15
2022/06/23 07:05:42;;;;;;;4.15;3.25;;;;;;;;;;7334293;19;154106;-15
2022/06/23 07:08:20;;;;;;;6.47;3.85;;;;;;;;;;7334103;19;153702;-15
2022/06/23 07:10:54;;;;;;;6.07;2.90;;;;;;;;;;7333922;19;161892;-15
2022/06/23 07:13:32;;;;;;;5.18;2.90;;;;;;;;;;7333877;19;162511;-15
2022/06/23 07:16:07;;;;;;;7.55;3.25;;;;;;;;;;7333994;19;154034;-16
2022/06/23 07:18:44;;;;;;;4.13;2.70;;;;;;;;;;7333382;19;153495;-16
2022/06/23 07:21:23;;;;;;;7.00;3.08;;;;;;;;;;7334211;19;162150;-15
2022/06/23 07:23:59;;;;;;;7.97;3.08;;;;;;;;;;7333200;19;162404;-15
2022/06/23 07:26:40;;;;;;;8.05;2.88;;;;;;;;;;7333526;19;154112;-15
2022/06/23 07:29:18;;;;;;;5.03;3.03;;;;;;;;;;7333553;19;153546;-15
2022/06/23 07:32:02;;;;;;;5.28;3.38;;;;;;;;;;7332184;19;161896;-16
2022/06/23 07:34:37;;;;;;;5.53;3.22;;;;;;;;;;7332809;19;164218;-15
2022/06/23 07:37:19;;;;;;;6.70;2.90;;;;;;;;;;7333236;19;154213;-15
2022/06/23 07:39:56;;;;;;;7.80;2.45;;;;;;;;;;7331965;19;153557;-15
2022/06/23 07:42:42;;;;;;;4.53;2.92;;;;;;;;;;7332907;19;161747;-15
2022/06/23 07:45:20;;;;;;;6.70;3.10;;;;;;;;;;7332999;19;162473;-15
2022/06/23 07:47:52;;;;;;;4.68;2.70;;;;;;;;;;7333061;19;154027;-15
2022/06/23 07:50:23;;;;;;;4.63;2.87;;;;;;;;;;7332892;19;153530;-15
2022/06/23 07:52:58;;;;;;;8.10;3.15;;;;;;;;;;7332570;19;161852;-15
2022/06/23 07:55:39;;;;;;;5.72;2.80;;;;;;;;;;7331449;19;162814;-16
2022/06/23 07:58:21;;;;;;;5.25;2.55;;;;;;;;;;7332595;19;154030;-15
2022/06/23 08:00:58;;;;;;;7.43;2.70;;;;;;;;;;7330892;19;153502;-15
2022/06/23 08:03:36;;;;;;;4.55;2.83;;;;;;;;;;7331327;19;161819;-15
2022/06/23 08:06:12;;;;;;;4.97;2.65;;;;;;;;;;7331919;19;162410;-15
2022/06/23 08:08:47;;;;;;;4.90;2.95;;;;;;;;;;7330493;19;154030;-15
2022/06/23 08:14:15;;;;;;;6.70;2.67;;;;;;;;;;7332136;19;161972;-15
2022/06/23 08:16:53;;;;;;;3.72;2.67;;;;;;;;;;7331987;19;162540;-15
2022/06/23 08:19:31;;;;;;;5.93;2.92;;;;;;;;;;7332273;19;154150;-15
2022/06/23 08:22:07;;;;;;;5.32;2.22;;;;;;;;;;7332386;19;153622;-15
2022/06/23 08:24:43;;;;;;;5.15;3.05;;;;;;;;;;7330656;19;162340;-15
2022/06/23 08:27:19;;;;;;;6.32;2.47;;;;;;;;;;7330894;19;162728;-15
2022/06/23 08:29:54;;;;;;;5.80;2.40;;;;;;;;;;7332086;19;154051;-15
2022/06/23 08:32:27;;;;;;;4.85;2.80;;;;;;;;;;7330323;19;153499;-15
2022/06/23 08:35:04;;;;;;;5.57;2.67;;;;;;;;;;7330378;19;161736;-15
2022/06/23 08:37:51;;;;;;;8.40;2.97;;;;;;;;;;7331485;19;162199;-15
2022/06/23 08:40:34;;;;;;;8.50;3.05;;;;;;;;;;7330534;19;154162;-16
2022/06/23 08:43:16;;;;;;;6.20;2.70;;;;;;;;;;7331541;19;153536;-15
2022/06/23 08:45:53;;;;;;;3.67;2.35;;;;;;;;;;7330016;19;161887;-15
2022/06/23 08:48:28;;;;;;;2.83;2.42;;;;;;;;;;7329804;19;162666;-15
2022/06/23 08:51:06;;;;;;;4.00;2.45;;;;;;;;;;7331234;19;154077;-15
2022/06/23 08:53:47;;;;;;;5.85;2.63;;;;;;;;;;7331943;19;153612;-15
2022/06/23 08:56:26;;;;;;;3.83;2.22;;;;;;;;;;7330912;19;161769;-15
2022/06/23 08:59:06;;;;;;;4.90;2.20;;;;;;;;;;7331042;19;162539;-15
2022/06/23 09:01:42;;;;;;;4.93;2.65;;;;;;;;;;7329294;19;154033;-15
2022/06/23 09:04:33;;;;;;;4.13;2.30;;;;;;;;;;7330946;19;153541;-15
2022/06/23 09:07:10;;;;;;;3.47;2.50;;;;;;;;;;7330621;19;161850;-15
2022/06/23 09:09:53;;;;;;;6.22;2.55;;;;;;;;;;7329570;19;162382;-16
2022/06/23 09:12:33;;;;;;;4.22;2.60;;;;;;;;;;7331098;19;154203;-15
2022/06/23 09:15:28;;;;;;;4.25;2.45;;;;;;;;;;7330722;19;153750;-15
2022/06/23 09:18:34;;;;;;;4.47;2.30;;;;;;;;;;7329260;19;161840;-15
2022/06/23 09:21:27;;;;;;;4.68;2.72;;;;;;;;;;7327800;19;162344;-15
2022/06/23 09:24:28;;;;;;;3.40;2.05;;;;;;;;;;7330913;19;154129;-15
2022/06/23 09:27:05;;;;;;;5.75;2.70;;;;;;;;;;7331724;19;153515;-15
2022/06/23 09:30:06;;;;;;;5.95;2.90;;;;;;;;;;7330086;19;162005;-15
2022/06/23 09:32:56;;;;;;;4.07;3.00;;;;;;;;;;7326664;19;162380;-16
2022/06/23 09:36:08;;;;;;;4.80;2.30;;;;;;;;;;7330089;19;154041;-15
2022/06/23 09:38:57;;;;;;;5.68;2.53;;;;;;;;;;7329002;19;153896;-15
2022/06/23 09:41:43;;;;;;;3.95;2.33;;;;;;;;;;7327958;19;161926;-15
2022/06/23 09:44:45;;;;;;;3.63;2.20;;;;;;;;;;7329738;19;162663;-15
2022/06/23 09:47:43;;;;;;;11.07;3.08;;;;;;;;;;7328767;19;154108;-15
2022/06/23 09:50:30;;;;;;;3.58;1.92;;;;;;;;;;7329788;19;153540;-15
2022/06/23 09:53:34;;;;;;;5.28;2.50;;;;;;;;;;7329596;19;161579;-15
2022/06/23 09:56:21;;;;;;;3.45;2.35;;;;;;;;;;7328812;19;162982;-15
2022/06/23 09:59:22;;;;;;;4.63;2.47;;;;;;;;;;7329466;19;154242;-15
2022/06/23 10:01:59;;;;;;;4.32;2.50;;;;;;;;;;7327353;19;153739;-15
2022/06/23 10:04:48;;;;;;;6.65;2.20;;;;;;;;;;7329027;19;161824;-15
2022/06/23 10:07:48;;;;;;;2.97;2.47;;;;;;;;;;7328823;19;162171;-15
2022/06/23 10:10:34;;;;;;;4.82;2.33;;;;;;;;;;7328620;19;154198;-17
2022/06/23 10:13:46;;;;;;;5.32;2.55;;;;;;;;;;7329124;19;153511;-15
2022/06/23 10:16:35;;;;;;;3.28;2.17;;;;;;;;;;7327364;19;162097;-15
2022/06/23 10:19:20;;;;;;;4.68;2.50;;;;;;;;;;7328660;19;162654;-15
2022/06/23 10:22:09;;;;;;;6.75;3.17;;;;;;;;;;7326110;19;154132;-15
2022/06/23 10:24:55;;;;;;;4.25;2.50;;;;;;;;;;7328802;19;153690;-15
2022/06/23 10:27:50;;;;;;;4.32;2.38;;;;;;;;;;7327308;19;162091;-15
2022/06/23 10:30:27;;;;;;;3.47;2.38;;;;;;;;;;7328187;19;162415;-16
2022/06/23 10:33:32;;;;;;;3.13;2.40;;;;;;;;;;7329863;19;154250;-15
2022/06/23 10:36:23;;;;;;;3.83;2.72;;;;;;;;;;7335061;19;153598;-15
2022/06/23 10:39:04;;;;;;;2.47;2.28;;;;;;;;;;7334745;19;162177;-15
2022/06/23 10:41:50;;;;;;;4.90;2.80;;;;;;;;;;7333672;19;162636;-15
2022/06/23 10:44:56;;;;;;;4.10;2.30;;;;;;;;;;7334945;19;154034;-16
2022/06/23 10:47:50;;;;;;;6.95;2.42;;;;;;;;;;7334686;19;153521;-15
2022/06/23 10:50:50;;;;;;;4.75;2.30;;;;;;;;;;7334600;19;161585;-15
2022/06/23 10:54:03;;;;;;;3.92;2.53;;;;;;;;;;7333651;19;162616;-15
2022/06/23 10:57:01;;;;;;;3.15;2.40;;;;;;;;;;7333830;19;154203;-15
2022/06/23 10:59:48;;;;;;;3.28;2.45;;;;;;;;;;7335707;19;153555;-15
2022/06/23 11:02:36;;;;;;;4.65;3.03;;;;;;;;;;7332750;19;161831;-15
2022/06/23 11:05:37;;;;;;;2.90;2.60;;;;;;;;;;7334037;19;162433;-15
2022/06/23 11:08:21;;;;;;;3.33;2.45;;;;;;;;;;7333343;19;154891;-15
2022/06/23 11:11:05;;;;;;;4.05;2.50;;;;;;;;;;7334037;19;153697;-16
2022/06/23 11:13:51;;;;;;;5.72;3.00;;;;;;;;;;7333551;19;162003;-15
2022/06/23 11:16:34;;;;;;;3.47;2.38;;;;;;;;;;7333837;19;162361;-15
2022/06/23 11:19:22;;;;;;;6.47;2.60;;;;;;;;;;7333073;19;154725;-15
2022/06/23 11:22:39;;;;;;;8.02;3.20;;;;;;;;;;7332645;19;154036;-15
2022/06/23 11:25:24;;;;;;;6.57;2.53;;;;;;;;;;7330472;19;162195;-15
2022/06/23 11:28:05;;;;;;;5.57;2.70;;;;;;;;;;7333123;19;162585;-15
2022/06/23 11:30:53;;;;;;;3.08;2.53;;;;;;;;;;7333712;19;154076;-15
2022/06/23 11:33:50;;;;;;;6.43;2.85;;;;;;;;;;7331007;19;153652;-15
2022/06/23 11:36:32;;;;;;;10.30;2.80;;;;;;;;;;7332650;19;161935;-15
2022/06/23 11:39:15;;;;;;;;;;;;;;;;;;7333423;19;162682;-15
2022/06/23 11:42:04;;;;;;;8.63;3.05;;;;;;;;;;7331747;19;154267;-15
2022/06/23 11:44:50;;;;;;;5.00;2.20;;;;;;;;;;7331533;19;153805;-15
2022/06/23 11:47:34;;;;;;;7.30;2.85;;;;;;;;;;7333034;19;161936;-17
2022/06/23 11:50:14;;;;;;;5.05;2.40;;;;;;;;;;7331595;19;163008;-16
2022/06/23 11:53:00;;;;;;;6.18;2.78;;;;;;;;;;7332999;19;154364;-16
2022/06/23 11:55:40;;;;;;;5.97;2.60;;;;;;;;;;7332844;19;153748;-16
2022/06/23 11:58:23;;;;;;;8.63;2.80;;;;;;;;;;7332620;19;161926;-16
2022/06/23 12:01:10;;;;;;;;;;;;;;;;;;7333257;19;162607;-14
2022/06/23 12:04:07;;;;;;;4.15;2.70;;;;;;;;;;7330517;19;154461;-15
2022/06/23 12:06:49;;;;;;;4.45;3.00;;;;;;;;;;7332653;19;153602;-15
2022/06/23 12:09:29;;;;;;;5.72;3.28;;;;;;;;;;7332142;19;162175;-15
2022/06/23 12:12:05;;;;;;;5.63;2.92;;;;;;;;;;7332261;19;162800;-15
2022/06/23 12:14:38;;;;;;;3.97;3.00;;;;;;;;;;7333033;19;153867;-16
2022/06/23 12:17:14;;;;;;;3.83;2.70;;;;;;;;;;7331905;19;153531;-14
2022/06/23 12:19:56;;;;;;;3.13;2.58;;;;;;;;;;7335760;19;162121;-14
2022/06/23 12:22:34;;;;;;;4.25;2.63;;;;;;;;;;7330863;19;162650;-14
2022/06/23 12:25:15;;;;;;;5.32;2.30;;;;;;;;;;7330939;19;154253;-14
2022/06/23 12:27:51;;;;;;;3.78;2.28;;;;;;;;;;7332052;19;153293;-14
2022/06/23 12:30:32;;;;;;;2.75;2.40;;;;;;;;;;7331542;19;161842;-14
2022/06/23 12:33:12;;;;;;;6.18;2.70;;;;;;;;;;7328957;19;162369;-14
2022/06/23 12:35:50;;;;;;;4.00;2.45;;;;;;;;;;7331807;19;154162;-16
2022/06/23 12:38:27;;;;;;;3.83;2.28;;;;;;;;;;7331576;19;153526;-14
2022/06/23 12:41:04;;;;;;;3.55;2.33;;;;;;;;;;7331014;19;162134;-14
2022/06/23 12:43:39;;;;;;;3.13;2.08;;;;;;;;;;7329381;19;162073;-15
2022/06/23 12:46:20;;;;;;;4.10;2.40;;;;;;;;;;7331559;19;154039;-15
2022/06/23 12:49:13;;;;;;;4.20;2.00;;;;;;;;;;7331339;19;153542;-15
2022/06/23 12:51:56;;;;;;;5.40;2.20;;;;;;;;;;7330672;19;161950;-15
2022/06/23 12:54:41;;;;;;;2.25;2.05;;;;;;;;;;7330321;19;162568;-15
2022/06/23 12:57:24;;;;;;;4.15;2.28;;;;;;;;;;7330133;19;154073;-15
2022/06/23 13:00:04;;;;;;;9.25;2.83;;;;;;;;;;7331212;19;153610;-14
2022/06/23 13:02:38;;;;;;;4.47;2.60;;;;;;;;;;7330323;19;161752;-15
2022/06/23 13:05:19;;;;;;;4.80;3.10;;;;;;;;;;7330756;19;162370;-15
2022/06/23 13:07:58;;;;;;;4.15;3.13;;;;;;;;;;7331556;19;154047;-15
2022/06/23 13:10:36;;;;;;;5.07;3.10;;;;;;;;;;7330817;19;153539;-15
2022/06/23 13:13:11;;;;;;;3.88;2.75;;;;;;;;;;7330368;19;162299;-15
2022/06/23 13:15:47;;;;;;;5.25;2.50;;;;;;;;;;7329283;19;162541;-17
2022/06/23 13:18:28;;;;;;;4.22;2.60;;;;;;;;;;7329490;19;153978;-16
2022/06/23 13:21:10;;;;;;;7.07;3.10;;;;;;;;;;7329745;19;153491;-15
2022/06/23 13:23:49;;;;;;;3.22;2.40;;;;;;;;;;7328807;19;162412;-15
2022/06/23 13:26:25;;;;;;;2.92;2.47;;;;;;;;;;7333909;19;162648;-15
2022/06/23 13:29:01;;;;;;;3.00;2.60;;;;;;;;;;7331477;19;154354;-15
2022/06/23 13:31:42;;;;;;;2.70;2.05;;;;;;;;;;7328443;19;153580;-15
2022/06/23 13:34:30;;;;;;;2.92;2.45;;;;;;;;;;7329822;19;161885;-15
2022/06/23 13:37:05;;;;;;;2.63;2.40;;;;;;;;;;7330176;19;162526;-15
2022/06/23 13:39:48;;;;;;;4.20;2.53;;;;;;;;;;7329925;19;154216;-14
2022/06/23 13:42:22;;;;;;;;;;;;;;;;;;7329232;19;153570;-14
2022/06/23 13:44:59;;;;;;;4.13;2.38;;;;;;;;;;7325677;19;162030;-15
2022/06/23 13:47:37;;;;;;;3.63;2.63;;;;;;;;;;7332073;19;162709;-15
2022/06/23 13:50:16;;;;;;;3.67;2.63;;;;;;;;;;7329711;19;154044;-15
2022/06/23 13:52:54;;;;;;;3.00;2.70;;;;;;;;;;7329822;19;153478;-15
2022/06/23 13:55:34;;;;;;;2.72;2.40;;;;;;;;;;7329467;19;161988;-15
2022/06/23 13:58:13;;;;;;;4.95;2.10;;;;;;;;;;7329036;19;162455;-16
2022/06/23 14:00:49;;;;;;;3.13;2.58;;;;;;;;;;7329453;19;154029;-14
2022/06/23 14:03:24;;;;;;;2.47;2.10;;;;;;;;;;7328752;19;153545;-14
2022/06/23 14:06:00;;;;;;;5.45;2.20;;;;;;;;;;7329122;19;162080;-14
2022/06/23 14:08:38;;;;;;;5.00;2.40;;;;;;;;;;7335542;19;162429;-14
2022/06/23 14:11:22;;;;;;;3.75;2.33;;;;;;;;;;7336038;19;154315;-16
2022/06/23 14:14:00;;;;;;;3.58;2.28;;;;;;;;;;7335909;19;153536;-13
2022/06/23 14:16:37;;;;;;;4.80;2.22;;;;;;;;;;7335322;19;161989;-13
2022/06/23 14:19:15;;;;;;;2.63;2.28;;;;;;;;;;7335368;19;163078;-15
2022/06/23 14:21:52;;;;;;;3.55;2.15;;;;;;;;;;7335752;19;154014;-17
2022/06/23 14:24:28;;;;;;;4.20;2.28;;;;;;;;;;7334630;19;153581;-17
2022/06/23 14:27:10;;;;;;;3.72;2.25;;;;;;;;;;7334473;19;161918;-17
2022/06/23 14:29:49;;;;;;;3.70;2.10;;;;;;;;;;7339514;19;162687;-17
2022/06/23 14:32:24;;;;;;;2.67;2.13;;;;;;;;;;7334244;19;154170;-17
2022/06/23 14:35:02;;;;;;;2.65;2.42;;;;;;;;;;7334544;19;153688;-17
2022/06/23 14:37:40;;;;;;;6.10;2.17;;;;;;;;;;7335222;19;162014;-18
2022/06/23 14:40:16;;;;;;;11.77;2.65;;;;;;;;;;7334709;19;162571;-18
2022/06/23 14:43:12;;;;;;;9.93;4.50;;;;;;;;;;7334144;19;154181;-17
2022/06/23 14:45:54;;;;;;;9.57;5.32;;;;;;;;;;7332952;19;153316;-18
2022/06/23 14:48:56;;;;;;;11.20;5.28;;;;;;;;;;7333460;19;161945;-18
2022/06/23 14:51:37;;;;;;;12.57;5.63;;;;;;;;;;7334316;19;162345;-17
2022/06/23 14:54:18;;;;;;;11.88;6.07;;;;;;;;;;7334357;19;154070;-17
2022/06/23 14:56:55;;;;;;;11.15;5.13;;;;;;;;;;7334444;19;153694;-17
2022/06/23 14:59:36;;;;;;;9.73;5.07;;;;;;;;;;7334170;19;161950;-18
2022/06/23 15:02:27;;;;;;;13.25;6.43;;;;;;;;;;7333123;19;162375;-17
2022/06/23 15:05:07;;;;;;;11.45;5.30;;;;;;;;;;7332963;19;153983;-18
2022/06/23 15:07:44;;;;;;;12.05;5.25;;;;;;;;;;7334323;19;153583;-17
2022/06/23 15:10:26;;;;;;;12.75;5.80;;;;;;;;;;7333900;19;161950;-18
2022/06/23 15:13:02;;;;;;;9.18;5.95;;;;;;;;;;7333902;19;162472;-18
2022/06/23 15:15:47;;;;;;;14.40;6.40;;;;;;;;;;7334270;19;154209;-17
2022/06/23 15:18:24;;;;;;;13.82;6.07;;;;;;;;;;7332613;19;153541;-16
2022/06/23 15:21:02;;;;;;;115.90;49.85;;;;;;;;;;7333731;19;161877;-17
2022/06/23 15:23:42;;;;;;;24.27;10.32;;;;;;;;;;7333390;19;162379;-18
2022/06/23 15:26:20;;;;;;;39.05;15.82;;;;;;;;;;7331277;19;153734;-18
2022/06/23 15:28:59;;;;;;;39.17;16.90;;;;;;;;;;7333561;19;153800;-18
2022/06/23 15:31:39;;;;;;;36.75;16.63;;;;;;;;;;7332643;19;161844;-17
2022/06/23 15:34:19;;;;;;;28.55;14.32;;;;;;;;;;7332960;19;162483;-18
2022/06/23 15:36:55;;;;;;;41.55;16.10;;;;;;;;;;7335673;19;154645;-17
2022/06/23 15:39:41;;;;;;;37.20;15.13;;;;;;;;;;7333322;19;153586;-18
2022/06/23 15:42:17;;;;;;;36.10;16.20;;;;;;;;;;7332794;19;161819;-18
2022/06/23 15:44:56;;;;;;;36.20;15.07;;;;;;;;;;7331893;19;162378;-18
2022/06/23 15:47:36;;;;;;;23.52;11.93;;;;;;;;;;7333246;19;154220;-17
2022/06/23 15:50:14;;;;;;;32.47;15.25;;;;;;;;;;7332955;19;153618;-18
2022/06/23 15:52:50;;;;;;;37.25;16.35;;;;;;;;;;7332318;19;161850;-18
2022/06/23 15:55:29;;;;;;;40.15;16.30;;;;;;;;;;7332501;19;162415;-17
2022/06/23 15:58:08;;;;;;;33.70;15.70;;;;;;;;;;7332782;19;154097;-17
2022/06/23 16:00:45;;;;;;;37.10;15.95;;;;;;;;;;7332995;19;153345;-18